Sunday, November 19, 2017, 5:31 AM EST
Back to Local

KBOS, Boston Logan International

Location: Boston, MA, United States Lat: 42.367
Local Time: 5:31 AM EST (10:31 GMT) Lon: -71.017
Time Zone: US/Eastern Elev: 19 ft

Show me the last for .
Show Decoded

2017-11-19 04:54 METAR KBOS 190954Z 19014G21KT 9SM -RA BKN026 OVC036 14/13 A2926 RMK AO2 RAB31
                 SLP909 P0000 T01440128 =
2017-11-19 03:54 METAR KBOS 190854Z 20010KT 10SM BKN023 OVC030 13/12 A2930 RMK AO2 SLP922 60001
                 T01330122 56044 =
2017-11-19 02:54 METAR KBOS 190754Z 19011KT 10SM BKN028 OVC038 13/12 A2934 RMK AO2 RAE08 SLP934
                 P0001 T01280117 =
2017-11-19 02:44 METAR KBOS 190744Z 19012KT 10SM SCT014 OVC028 13/12 A2934 RMK AO2 RAE08 P0001
                 T01280117 =
2017-11-19 01:54 METAR KBOS 190654Z 18011KT 10SM -RA BKN013 BKN022 OVC038 12/11 A2939 RMK AO2
                 PRESFR SLP950 P0000 T01170111 =
2017-11-19 00:54 METAR KBOS 190554Z 17005KT 10SM -RA BKN013 BKN021 OVC045 10/10 A2943 RMK AO2
                 SLP966 P0003 60010 T01000100 10111 20078 58038 =
2017-11-19 00:40 METAR KBOS 190540Z 18006KT 7SM -RA BKN017 BKN040 OVC100 10/09 A2944 RMK AO2
                 P0003 T01000094 =
2017-11-18 23:54 METAR KBOS 190454Z 21008KT 9SM -RA FEW028 BKN050 OVC095 11/09 A2948 RMK AO2
                 RAB11 SLP983 P0000 T01110094 401111011 =
2017-11-18 23:36 METAR KBOS 190436Z 21009KT 10SM -RA SCT028 OVC050 11/09 A2949 RMK AO2 RAB11
                 P0000 T01110094 =
2017-11-18 22:54 METAR KBOS 190354Z 19007KT 10SM FEW023 BKN027 OVC039 09/08 A2951 RMK AO2
                 RAB29E37 SLP992 P0000 T00940083 =
2017-11-18 22:32 METAR KBOS 190332Z 16007KT 10SM -RA BKN023 OVC033 09/08 A2952 RMK AO2 RAB29
                 P0000 T00940083 =
2017-11-18 21:54 METAR KBOS 190254Z 14008KT 10SM BKN035 BKN044 OVC055 09/08 A2954 RMK AO2 RAE41
                 SLP004 P0000 60007 T00890078 58041 =
2017-11-18 20:54 METAR KBOS 190154Z 12007KT 10SM -RA FEW032 SCT040 OVC060 08/07 A2959 RMK AO2
                 SLP018 P0006 T00830072 =
2017-11-18 19:54 METAR KBOS 190054Z 13005KT 8SM -RA FEW044 OVC055 08/07 A2963 RMK AO2 RAB17
                 SLP033 P0001 T00780067 =
2017-11-18 18:54 METAR KBOS 182354Z 12004KT 10SM BKN031 OVC070 08/06 A2966 RMK AO2 RAE25 SLP044
                 P0000 60001 T00780056 10078 20067 58023 =
2017-11-18 17:54 METAR KBOS 182254Z 09006KT 10SM -RA BKN075 OVC090 07/04 A2969 RMK AO2 SLP054
                 P0001 T00720044 =
2017-11-18 16:54 METAR KBOS 182154Z 08006KT 10SM -RA OVC080 07/03 A2971 RMK AO2 RAB27 SLP061
                 P0000 T00670033 =
2017-11-18 15:54 METAR KBOS 182054Z 15006KT 10SM BKN130 OVC230 07/01 A2973 RMK AO2 SLP067 VIRGA
                 S-W T00720006 58030 =
2017-11-18 14:54 METAR KBOS 181954Z 18006KT 10SM BKN140 OVC250 07/M01 A2977 RMK A02 SLP079
                 T00721006 =
2017-11-18 13:54 METAR KBOS 181854Z 20009KT 10SM FEW100 BKN140 OVC250 07/M03 A2980 RMK AO2 SLP090
                 T00721028 =
2017-11-18 12:54 METAR KBOS 181754Z 21008KT 180V260 10SM BKN100 BKN180 07/M06 A2982 RMK AO2
                 SLP098 T00721056 10072 20006 58040 =
2017-11-18 11:54 METAR KBOS 181654Z 19007KT 10SM BKN100 BKN180 07/M08 A2986 RMK AO2 SLP112
                 T00671078 =
2017-11-18 10:54 METAR KBOS 181554Z 15003KT 10SM SCT100 BKN160 04/M07 A2991 RMK AO2 SLP127
                 T00441067 =
2017-11-18 09:54 METAR KBOS 181454Z 17005KT 10SM FEW080 03/M06 A2994 RMK AO2 SLP137 T00331061
                 58014 =
2017-11-18 08:54 METAR KBOS 181354Z 18004KT 10SM FEW080 03/M07 A2995 RMK AO2 SLP140 T00281072 =
2017-11-18 07:54 METAR KBOS 181254Z 26005KT 10SM FEW080 02/M08 A2998 RMK AO2 SLP150 T00221083 =
2017-11-18 06:54 METAR KBOS 181154Z 27005KT 10SM FEW080 00/M08 A2998 RMK AO2 SLP151 T00001083
                 10006 21011 51004 =
2017-11-18 05:54 METAR KBOS 181054Z 24004KT 10SM CLR M01/M07 A2998 RMK AO2 SLP151 T10061072 =

Support USWX by starting your Amazon purchase here.